sensor_id;sensor_type;location;lat;lon;timestamp;pressure;altitude;pressure_sealevel;temperature;humidity
13709;BME280;54933;51.908;7.730;2022-07-18T00:00:40;101904.56;;;23.77;98.64
13709;BME280;54933;51.908;7.730;2022-07-18T00:03:06;101893.91;;;23.76;98.74
13709;BME280;54933;51.908;7.730;2022-07-18T00:05:31;101893.72;;;23.77;98.56
13709;BME280;54933;51.908;7.730;2022-07-18T00:07:56;101893.72;;;23.77;98.74
13709;BME280;54933;51.908;7.730;2022-07-18T00:10:22;101897.47;;;23.76;98.79
13709;BME280;54933;51.908;7.730;2022-07-18T00:12:47;101888.28;;;23.77;98.74
13709;BME280;54933;51.908;7.730;2022-07-18T00:15:13;101891.00;;;23.77;98.91
13709;BME280;54933;51.908;7.730;2022-07-18T00:17:38;101876.63;;;23.77;98.90
13709;BME280;54933;51.908;7.730;2022-07-18T00:20:09;101878.47;;;23.76;98.74
13709;BME280;54933;51.908;7.730;2022-07-18T00:22:35;101881.19;;;23.76;98.82
13709;BME280;54933;51.908;7.730;2022-07-18T00:25:00;101866.56;;;23.77;98.81
13709;BME280;54933;51.908;7.730;2022-07-18T00:27:25;101876.63;;;23.77;98.99
13709;BME280;54933;51.908;7.730;2022-07-18T00:29:50;101868.47;;;23.77;98.96
13709;BME280;54933;51.908;7.730;2022-07-18T00:32:16;101868.47;;;23.77;98.94
13709;BME280;54933;51.908;7.730;2022-07-18T00:34:41;101868.47;;;23.77;98.92
13709;BME280;54933;51.908;7.730;2022-07-18T00:37:07;101862.19;;;23.76;99.16
13709;BME280;54933;51.908;7.730;2022-07-18T00:39:33;101854.06;;;23.76;98.87
13709;BME280;54933;51.908;7.730;2022-07-18T00:41:59;101856.75;;;23.76;98.85
13709;BME280;54933;51.908;7.730;2022-07-18T00:44:26;101845.06;;;23.76;99.02
13709;BME280;54933;51.908;7.730;2022-07-18T00:46:55;101851.34;;;23.76;99.03
13709;BME280;54933;51.908;7.730;2022-07-18T00:49:20;101850.28;;;23.77;98.89
13709;BME280;54933;51.908;7.730;2022-07-18T00:51:46;101840.47;;;23.76;98.88
13709;BME280;54933;51.908;7.730;2022-07-18T00:54:12;101841.31;;;23.77;98.81
13709;BME280;54933;51.908;7.730;2022-07-18T00:56:37;101840.47;;;23.76;98.94
13709;BME280;54933;51.908;7.730;2022-07-18T00:59:03;101842.34;;;23.76;98.82
13709;BME280;54933;51.908;7.730;2022-07-18T01:01:29;101847.78;;;23.76;98.51
13709;BME280;54933;51.908;7.730;2022-07-18T01:04:21;101849.47;;;23.77;98.73
13709;BME280;54933;51.908;7.730;2022-07-18T01:06:48;101848.63;;;23.76;98.46
13709;BME280;54933;51.908;7.730;2022-07-18T01:09:14;101854.91;;;23.77;98.40
13709;BME280;54933;51.908;7.730;2022-07-18T01:11:40;101859.47;;;23.76;98.18
13709;BME280;54933;51.908;7.730;2022-07-18T01:14:06;101858.44;;;23.77;98.35
13709;BME280;54933;51.908;7.730;2022-07-18T01:16:32;101862.19;;;23.76;98.48
13709;BME280;54933;51.908;7.730;2022-07-18T01:18:57;101863.25;;;23.75;98.48
13709;BME280;54933;51.908;7.730;2022-07-18T01:21:23;101863.25;;;23.75;98.35
13709;BME280;54933;51.908;7.730;2022-07-18T01:23:48;101854.06;;;23.76;98.40
13709;BME280;54933;51.908;7.730;2022-07-18T01:26:14;101856.75;;;23.76;98.38
13709;BME280;54933;51.908;7.730;2022-07-18T01:28:40;101861.13;;;23.77;98.46
13709;BME280;54933;51.908;7.730;2022-07-18T01:31:05;101855.09;;;23.75;98.34
13709;BME280;54933;51.908;7.730;2022-07-18T01:33:32;101848.63;;;23.76;98.08
13709;BME280;54933;51.908;7.730;2022-07-18T01:35:59;101837.75;;;23.76;98.50
13709;BME280;54933;51.908;7.730;2022-07-18T01:38:27;101841.53;;;23.75;98.34
13709;BME280;54933;51.908;7.730;2022-07-18T01:40:52;101845.06;;;23.76;98.27
13709;BME280;54933;51.908;7.730;2022-07-18T01:43:17;101844.25;;;23.75;98.08
13709;BME280;54933;51.908;7.730;2022-07-18T01:45:43;101841.31;;;23.77;98.31
13709;BME280;54933;51.908;7.730;2022-07-18T01:48:08;101841.53;;;23.75;98.23
13709;BME280;54933;51.908;7.730;2022-07-18T01:50:33;101836.91;;;23.76;98.33
13709;BME280;54933;51.908;7.730;2022-07-18T01:52:59;101836.91;;;23.76;98.44
13709;BME280;54933;51.908;7.730;2022-07-18T01:55:24;101829.63;;;23.76;98.35
13709;BME280;54933;51.908;7.730;2022-07-18T01:57:50;101824.19;;;23.76;98.38
13709;BME280;54933;51.908;7.730;2022-07-18T02:00:15;101822.53;;;23.75;98.37
13709;BME280;54933;51.908;7.730;2022-07-18T02:02:40;101819.81;;;23.75;98.39
13709;BME280;54933;51.908;7.730;2022-07-18T02:05:06;101819.81;;;23.75;98.35
13709;BME280;54933;51.908;7.730;2022-07-18T02:07:35;101815.22;;;23.76;98.41
13709;BME280;54933;51.908;7.730;2022-07-18T02:10:03;101816.06;;;23.76;98.43
13709;BME280;54933;51.908;7.730;2022-07-18T02:12:29;101809.78;;;23.76;98.37
13709;BME280;54933;51.908;7.730;2022-07-18T02:14:54;101803.53;;;23.75;98.31
13709;BME280;54933;51.908;7.730;2022-07-18T02:17:20;101806.25;;;23.75;98.25
13709;BME280;54933;51.908;7.730;2022-07-18T02:19:45;101812.72;;;23.74;98.35
13709;BME280;54933;51.908;7.730;2022-07-18T02:22:11;101810.63;;;23.76;98.25
13709;BME280;54933;51.908;7.730;2022-07-18T02:24:36;101814.41;;;23.75;98.26
13709;BME280;54933;51.908;7.730;2022-07-18T02:27:02;101806.44;;;23.74;98.55
13709;BME280;54933;51.908;7.730;2022-07-18T02:29:28;101811.69;;;23.75;98.48
13709;BME280;54933;51.908;7.730;2022-07-18T02:31:53;101808.97;;;23.75;98.60
13709;BME280;54933;51.908;7.730;2022-07-18T02:34:19;101803.53;;;23.75;98.58
13709;BME280;54933;51.908;7.730;2022-07-18T02:36:44;101808.97;;;23.75;98.55
13709;BME280;54933;51.908;7.730;2022-07-18T02:39:10;101804.56;;;23.74;98.45
13709;BME280;54933;51.908;7.730;2022-07-18T02:41:35;101812.72;;;23.74;98.63
13709;BME280;54933;51.908;7.730;2022-07-18T02:44:01;101807.28;;;23.74;98.53
13709;BME280;54933;51.908;7.730;2022-07-18T02:46:27;101804.56;;;23.74;98.56
13709;BME280;54933;51.908;7.730;2022-07-18T02:48:52;101803.72;;;23.74;98.66
13709;BME280;54933;51.908;7.730;2022-07-18T02:51:17;101808.97;;;23.75;98.75
13709;BME280;54933;51.908;7.730;2022-07-18T02:53:43;101809.78;;;23.76;98.74
13709;BME280;54933;51.908;7.730;2022-07-18T02:56:08;101810.84;;;23.75;98.68
13709;BME280;54933;51.908;7.730;2022-07-18T02:58:33;101804.56;;;23.74;98.47
13709;BME280;54933;51.908;7.730;2022-07-18T03:00:59;101801.84;;;23.74;98.46
13709;BME280;54933;51.908;7.730;2022-07-18T03:03:24;101795.41;;;23.75;98.42
13709;BME280;54933;51.908;7.730;2022-07-18T03:05:50;101803.53;;;23.75;98.40
13709;BME280;54933;51.908;7.730;2022-07-18T03:08:15;101803.53;;;23.75;98.20
13709;BME280;54933;51.908;7.730;2022-07-18T03:10:40;101808.13;;;23.75;98.20
13709;BME280;54933;51.908;7.730;2022-07-18T03:13:05;101807.28;;;23.74;98.14
13709;BME280;54933;51.908;7.730;2022-07-18T03:15:31;101808.13;;;23.75;98.10
13709;BME280;54933;51.908;7.730;2022-07-18T03:17:56;101802.69;;;23.75;98.13
13709;BME280;54933;51.908;7.730;2022-07-18T03:20:22;101803.53;;;23.75;98.09
13709;BME280;54933;51.908;7.730;2022-07-18T03:22:47;101808.97;;;23.75;98.01
13709;BME280;54933;51.908;7.730;2022-07-18T03:25:12;101813.56;;;23.75;97.82
13709;BME280;54933;51.908;7.730;2022-07-18T03:27:38;101804.56;;;23.74;98.07
13709;BME280;54933;51.908;7.730;2022-07-18T03:30:03;101807.28;;;23.74;97.93
13709;BME280;54933;51.908;7.730;2022-07-18T03:32:29;101803.53;;;23.75;97.97
13709;BME280;54933;51.908;7.730;2022-07-18T03:34:54;101796.41;;;23.74;97.82
13709;BME280;54933;51.908;7.730;2022-07-18T03:37:19;101802.69;;;23.75;97.97
13709;BME280;54933;51.908;7.730;2022-07-18T03:39:44;101807.28;;;23.74;97.82
13709;BME280;54933;51.908;7.730;2022-07-18T03:42:10;101806.25;;;23.75;97.86
13709;BME280;54933;51.908;7.730;2022-07-18T03:44:35;101798.28;;;23.74;97.39
13709;BME280;54933;51.908;7.730;2022-07-18T03:47:00;101804.56;;;23.74;97.81
13709;BME280;54933;51.908;7.730;2022-07-18T03:49:26;101801.63;;;23.76;97.80
13709;BME280;54933;51.908;7.730;2022-07-18T03:51:51;101801.84;;;23.74;97.78
13709;BME280;54933;51.908;7.730;2022-07-18T03:54:16;101801.84;;;23.74;97.74
13709;BME280;54933;51.908;7.730;2022-07-18T03:56:41;101801.84;;;23.74;97.90
13709;BME280;54933;51.908;7.730;2022-07-18T03:59:07;101801.84;;;23.74;97.88
13709;BME280;54933;51.908;7.730;2022-07-18T04:01:32;101807.28;;;23.74;97.79
13709;BME280;54933;51.908;7.730;2022-07-18T04:03:58;101812.72;;;23.74;97.91
13709;BME280;54933;51.908;7.730;2022-07-18T04:06:23;101817.13;;;23.75;97.85
13709;BME280;54933;51.908;7.730;2022-07-18T04:08:48;101818.13;;;23.74;98.07
13709;BME280;54933;51.908;7.730;2022-07-18T04:11:13;101808.13;;;23.75;98.00
13709;BME280;54933;51.908;7.730;2022-07-18T04:13:39;101812.72;;;23.74;98.00
13709;BME280;54933;51.908;7.730;2022-07-18T04:16:04;101807.28;;;23.74;97.96
13709;BME280;54933;51.908;7.730;2022-07-18T04:18:30;101811.88;;;23.74;97.98
13709;BME280;54933;51.908;7.730;2022-07-18T04:20:55;101812.72;;;23.74;98.00
13709;BME280;54933;51.908;7.730;2022-07-18T04:23:20;101807.28;;;23.74;98.04
13709;BME280;54933;51.908;7.730;2022-07-18T04:25:46;101801.84;;;23.74;98.02
13709;BME280;54933;51.908;7.730;2022-07-18T04:28:12;101808.34;;;23.73;97.95
13709;BME280;54933;51.908;7.730;2022-07-18T04:30:39;101802.91;;;23.73;98.14
13709;BME280;54933;51.908;7.730;2022-07-18T04:33:06;101801.00;;;23.74;98.19
13709;BME280;54933;51.908;7.730;2022-07-18T04:35:33;101798.50;;;23.72;98.16
13709;BME280;54933;51.908;7.730;2022-07-18T04:38:01;101791.00;;;23.74;98.08
13709;BME280;54933;51.908;7.730;2022-07-18T04:40:26;101788.50;;;23.73;98.19
13709;BME280;54933;51.908;7.730;2022-07-18T04:42:52;101792.06;;;23.73;98.17
13709;BME280;54933;51.908;7.730;2022-07-18T04:45:17;101791.00;;;23.74;98.09
13709;BME280;54933;51.908;7.730;2022-07-18T04:47:46;101783.91;;;23.73;98.01
13709;BME280;54933;51.908;7.730;2022-07-18T04:50:11;101775.75;;;23.73;97.86
13709;BME280;54933;51.908;7.730;2022-07-18T04:52:39;101783.91;;;23.73;98.11
13709;BME280;54933;51.908;7.730;2022-07-18T04:55:05;101788.28;;;23.74;98.17
13709;BME280;54933;51.908;7.730;2022-07-18T04:57:30;101782.22;;;23.72;98.17
13709;BME280;54933;51.908;7.730;2022-07-18T04:59:56;101781.19;;;23.73;98.26
13709;BME280;54933;51.908;7.730;2022-07-18T05:02:21;101780.34;;;23.73;98.02
13709;BME280;54933;51.908;7.730;2022-07-18T05:04:46;101783.91;;;23.73;98.14
13709;BME280;54933;51.908;7.730;2022-07-18T05:07:11;101773.06;;;23.73;97.94
13709;BME280;54933;51.908;7.730;2022-07-18T05:09:37;101783.06;;;23.73;97.92
13709;BME280;54933;51.908;7.730;2022-07-18T05:12:02;101782.22;;;23.72;97.88
13709;BME280;54933;51.908;7.730;2022-07-18T05:14:28;101783.91;;;23.73;97.73
13709;BME280;54933;51.908;7.730;2022-07-18T05:16:53;101778.47;;;23.73;97.84
13709;BME280;54933;51.908;7.730;2022-07-18T05:19:18;101770.34;;;23.73;97.81
13709;BME280;54933;51.908;7.730;2022-07-18T05:21:44;101767.63;;;23.73;97.79
13709;BME280;54933;51.908;7.730;2022-07-18T05:24:10;101764.91;;;23.73;97.78
13709;BME280;54933;51.908;7.730;2022-07-18T05:26:35;101768.44;;;23.74;97.56
13709;BME280;54933;51.908;7.730;2022-07-18T05:29:01;101778.47;;;23.73;97.75
13709;BME280;54933;51.908;7.730;2022-07-18T05:31:26;101791.22;;;23.73;97.55
13709;BME280;54933;51.908;7.730;2022-07-18T05:33:51;101783.91;;;23.73;97.66
13709;BME280;54933;51.908;7.730;2022-07-18T05:36:16;101792.06;;;23.73;97.53
13709;BME280;54933;51.908;7.730;2022-07-18T05:38:42;101786.63;;;23.73;97.68
13709;BME280;54933;51.908;7.730;2022-07-18T05:41:07;101790.16;;;23.74;97.48
13709;BME280;54933;51.908;7.730;2022-07-18T05:43:32;101786.63;;;23.73;97.56
13709;BME280;54933;51.908;7.730;2022-07-18T05:45:58;101784.72;;;23.74;97.34
13709;BME280;54933;51.908;7.730;2022-07-18T05:48:23;101772.00;;;23.74;97.41
13709;BME280;54933;51.908;7.730;2022-07-18T05:50:48;101763.00;;;23.74;97.43
13709;BME280;54933;51.908;7.730;2022-07-18T05:53:13;101763.84;;;23.74;97.33
13709;BME280;54933;51.908;7.730;2022-07-18T05:55:39;101759.28;;;23.75;97.49
13709;BME280;54933;51.908;7.730;2022-07-18T05:58:04;101758.44;;;23.74;97.54
13709;BME280;54933;51.908;7.730;2022-07-18T06:00:29;101756.78;;;23.73;97.44
13709;BME280;54933;51.908;7.730;2022-07-18T06:02:55;101757.56;;;23.74;97.49
13709;BME280;54933;51.908;7.730;2022-07-18T06:05:21;101746.72;;;23.74;97.50
13709;BME280;54933;51.908;7.730;2022-07-18T06:07:46;101745.06;;;23.73;97.34
13709;BME280;54933;51.908;7.730;2022-07-18T06:10:12;101741.28;;;23.74;97.23
13709;BME280;54933;51.908;7.730;2022-07-18T06:12:37;101737.78;;;23.73;97.44
13709;BME280;54933;51.908;7.730;2022-07-18T06:15:03;101740.28;;;23.75;97.38
13709;BME280;54933;51.908;7.730;2022-07-18T06:17:28;101741.28;;;23.74;97.66
13709;BME280;54933;51.908;7.730;2022-07-18T06:19:54;101745.91;;;23.73;97.55
13709;BME280;54933;51.908;7.730;2022-07-18T06:22:21;101741.28;;;23.74;97.65
13709;BME280;54933;51.908;7.730;2022-07-18T06:24:46;101740.47;;;23.73;97.37
13709;BME280;54933;51.908;7.730;2022-07-18T06:27:12;101735.88;;;23.74;97.51
13709;BME280;54933;51.908;7.730;2022-07-18T06:29:37;101735.88;;;23.74;97.47
13709;BME280;54933;51.908;7.730;2022-07-18T06:32:02;101747.56;;;23.74;97.59
13709;BME280;54933;51.908;7.730;2022-07-18T06:34:28;101740.47;;;23.73;97.57
13709;BME280;54933;51.908;7.730;2022-07-18T06:36:53;101737.78;;;23.73;97.57
13709;BME280;54933;51.908;7.730;2022-07-18T06:39:18;101748.63;;;23.73;97.66
13709;BME280;54933;51.908;7.730;2022-07-18T06:41:44;101751.34;;;23.73;97.62
13709;BME280;54933;51.908;7.730;2022-07-18T06:44:10;101746.94;;;23.72;97.67
13709;BME280;54933;51.908;7.730;2022-07-18T06:46:35;101749.66;;;23.72;97.66
13709;BME280;54933;51.908;7.730;2022-07-18T06:49:02;101759.47;;;23.73;97.83
13709;BME280;54933;51.908;7.730;2022-07-18T06:51:27;101762.19;;;23.73;97.79
13709;BME280;54933;51.908;7.730;2022-07-18T06:53:53;101759.47;;;23.73;97.76
13709;BME280;54933;51.908;7.730;2022-07-18T06:56:18;101759.47;;;23.73;97.67
13709;BME280;54933;51.908;7.730;2022-07-18T06:58:43;101766.56;;;23.74;97.70
13709;BME280;54933;51.908;7.730;2022-07-18T07:01:17;101759.47;;;23.73;97.50
13709;BME280;54933;51.908;7.730;2022-07-18T07:03:43;101761.34;;;23.73;97.94
13709;BME280;54933;51.908;7.730;2022-07-18T07:06:08;101750.50;;;23.73;97.75
13709;BME280;54933;51.908;7.730;2022-07-18T07:08:33;101746.94;;;23.72;97.77
13709;BME280;54933;51.908;7.730;2022-07-18T07:10:59;101745.91;;;23.73;97.75
13709;BME280;54933;51.908;7.730;2022-07-18T07:13:25;101746.72;;;23.74;97.57
13709;BME280;54933;51.908;7.730;2022-07-18T07:15:50;101737.78;;;23.73;97.77
13709;BME280;54933;51.908;7.730;2022-07-18T07:18:15;101729.63;;;23.73;97.79
13709;BME280;54933;51.908;7.730;2022-07-18T07:20:41;101725.00;;;23.74;97.73
13709;BME280;54933;51.908;7.730;2022-07-18T07:23:06;101723.13;;;23.74;97.79
13709;BME280;54933;51.908;7.730;2022-07-18T07:25:36;101719.59;;;23.74;97.81
13709;BME280;54933;51.908;7.730;2022-07-18T07:28:03;101716.06;;;23.73;97.60
13709;BME280;54933;51.908;7.730;2022-07-18T07:30:28;101715.00;;;23.74;98.17
13709;BME280;54933;51.908;7.730;2022-07-18T07:32:54;101715.00;;;23.74;97.79
13709;BME280;54933;51.908;7.730;2022-07-18T07:35:20;101714.16;;;23.74;98.03
13709;BME280;54933;51.908;7.730;2022-07-18T07:37:54;101704.13;;;23.74;97.76
13709;BME280;54933;51.908;7.730;2022-07-18T07:40:20;101705.19;;;23.73;97.95
13709;BME280;54933;51.908;7.730;2022-07-18T07:42:46;101703.31;;;23.74;97.91
13709;BME280;54933;51.908;7.730;2022-07-18T07:45:12;101708.72;;;23.74;97.75
13709;BME280;54933;51.908;7.730;2022-07-18T07:47:39;101702.50;;;23.73;97.46
13709;BME280;54933;51.908;7.730;2022-07-18T07:50:07;101710.41;;;23.75;97.96
13709;BME280;54933;51.908;7.730;2022-07-18T07:52:33;101713.13;;;23.75;97.91
13709;BME280;54933;51.908;7.730;2022-07-18T07:54:59;101712.28;;;23.74;97.95
13709;BME280;54933;51.908;7.730;2022-07-18T07:57:24;101716.69;;;23.75;97.97
13709;BME280;54933;51.908;7.730;2022-07-18T07:59:51;101711.44;;;23.74;98.10
13709;BME280;54933;51.908;7.730;2022-07-18T08:02:16;101711.25;;;23.75;98.20
13709;BME280;54933;51.908;7.730;2022-07-18T08:04:42;101709.56;;;23.74;98.09
13709;BME280;54933;51.908;7.730;2022-07-18T08:07:07;101716.69;;;23.75;98.42
13709;BME280;54933;51.908;7.730;2022-07-18T08:09:33;101705.00;;;23.75;98.00
13709;BME280;54933;51.908;7.730;2022-07-18T08:11:59;101701.22;;;23.76;98.23
13709;BME280;54933;51.908;7.730;2022-07-18T08:14:24;101697.69;;;23.75;98.30
13709;BME280;54933;51.908;7.730;2022-07-18T08:16:49;101697.69;;;23.75;98.30
13709;BME280;54933;51.908;7.730;2022-07-18T08:19:14;101701.44;;;23.74;98.33
13709;BME280;54933;51.908;7.730;2022-07-18T08:21:40;101705.84;;;23.75;98.35
13709;BME280;54933;51.908;7.730;2022-07-18T08:24:05;101700.41;;;23.75;98.34
13709;BME280;54933;51.908;7.730;2022-07-18T08:26:31;101703.13;;;23.75;98.44
13709;BME280;54933;51.908;7.730;2022-07-18T08:28:59;101684.13;;;23.75;98.27
13709;BME280;54933;51.908;7.730;2022-07-18T08:31:24;101690.56;;;23.74;98.54
13709;BME280;54933;51.908;7.730;2022-07-18T08:33:50;101689.53;;;23.75;98.32
13709;BME280;54933;51.908;7.730;2022-07-18T08:36:15;101691.19;;;23.76;98.32
13709;BME280;54933;51.908;7.730;2022-07-18T08:38:41;101684.13;;;23.75;98.67
13709;BME280;54933;51.908;7.730;2022-07-18T08:41:06;101692.25;;;23.75;98.60
13709;BME280;54933;51.908;7.730;2022-07-18T08:43:32;101691.19;;;23.76;98.73
13709;BME280;54933;51.908;7.730;2022-07-18T08:46:03;101687.66;;;23.76;98.68
13709;BME280;54933;51.908;7.730;2022-07-18T08:48:29;101685.78;;;23.76;98.63
13709;BME280;54933;51.908;7.730;2022-07-18T08:50:55;101681.41;;;23.75;98.73
13709;BME280;54933;51.908;7.730;2022-07-18T08:53:20;101681.41;;;23.75;98.72
13709;BME280;54933;51.908;7.730;2022-07-18T08:55:46;101690.34;;;23.76;98.75
13709;BME280;54933;51.908;7.730;2022-07-18T08:58:13;101682.22;;;23.76;98.78
13709;BME280;54933;51.908;7.730;2022-07-18T09:00:40;101682.22;;;23.76;98.87
13709;BME280;54933;51.908;7.730;2022-07-18T09:03:05;101685.78;;;23.76;99.12
13709;BME280;54933;51.908;7.730;2022-07-18T09:05:32;101683.06;;;23.76;99.11
13709;BME280;54933;51.908;7.730;2022-07-18T09:08:12;101679.50;;;23.76;99.10
13709;BME280;54933;51.908;7.730;2022-07-18T09:10:51;101680.34;;;23.76;99.12
13709;BME280;54933;51.908;7.730;2022-07-18T09:13:18;101687.44;;;23.77;99.19
13709;BME280;54933;51.908;7.730;2022-07-18T09:18:35;101692.03;;;23.77;99.24
13709;BME280;54933;51.908;7.730;2022-07-18T09:21:04;101689.31;;;23.77;99.05
13709;BME280;54933;51.908;7.730;2022-07-18T09:23:35;101688.50;;;23.76;99.13
13709;BME280;54933;51.908;7.730;2022-07-18T09:26:01;101685.78;;;23.76;99.12
13709;BME280;54933;51.908;7.730;2022-07-18T09:28:28;101685.78;;;23.76;99.17
13709;BME280;54933;51.908;7.730;2022-07-18T09:30:53;101676.56;;;23.77;99.40
13709;BME280;54933;51.908;7.730;2022-07-18T09:33:19;101678.47;;;23.77;99.33
13709;BME280;54933;51.908;7.730;2022-07-18T09:35:49;101666.78;;;23.76;99.27
13709;BME280;54933;51.908;7.730;2022-07-18T09:38:16;101665.72;;;23.77;99.43
13709;BME280;54933;51.908;7.730;2022-07-18T09:40:43;101666.56;;;23.78;99.19
13709;BME280;54933;51.908;7.730;2022-07-18T09:43:12;101656.53;;;23.78;99.12
13709;BME280;54933;51.908;7.730;2022-07-18T09:45:40;101666.56;;;23.78;99.16
13709;BME280;54933;51.908;7.730;2022-07-18T09:48:11;101663.84;;;23.78;99.15
13709;BME280;54933;51.908;7.730;2022-07-18T09:50:38;101666.56;;;23.78;99.27
13709;BME280;54933;51.908;7.730;2022-07-18T09:55:31;101659.25;;;23.78;99.27
13709;BME280;54933;51.908;7.730;2022-07-18T09:57:59;101661.97;;;23.78;99.23
13709;BME280;54933;51.908;7.730;2022-07-18T10:00:28;101658.19;;;23.79;99.32
13709;BME280;54933;51.908;7.730;2022-07-18T10:02:54;101657.34;;;23.79;99.49
13709;BME280;54933;51.908;7.730;2022-07-18T10:05:20;101657.34;;;23.79;99.38
13709;BME280;54933;51.908;7.730;2022-07-18T10:07:45;101657.34;;;23.79;99.36
13709;BME280;54933;51.908;7.730;2022-07-18T10:10:14;101651.94;;;23.79;99.38
13709;BME280;54933;51.908;7.730;2022-07-18T10:12:41;101660.69;;;23.81;99.54
13709;BME280;54933;51.908;7.730;2022-07-18T10:15:06;101648.41;;;23.78;99.33
13709;BME280;54933;51.908;7.730;2022-07-18T10:17:32;101646.50;;;23.79;99.25
13709;BME280;54933;51.908;7.730;2022-07-18T10:20:04;101639.19;;;23.79;99.47
13709;BME280;54933;51.908;7.730;2022-07-18T10:22:35;101641.91;;;23.79;99.39
13709;BME280;54933;51.908;7.730;2022-07-18T10:25:07;101635.63;;;23.79;99.18
13709;BME280;54933;51.908;7.730;2022-07-18T10:30:32;101641.91;;;23.79;99.47
13709;BME280;54933;51.908;7.730;2022-07-18T10:33:00;101641.91;;;23.79;99.27
13709;BME280;54933;51.908;7.730;2022-07-18T10:38:25;101638.13;;;23.80;99.75
13709;BME280;54933;51.908;7.730;2022-07-18T10:41:04;101631.06;;;23.79;99.54
13709;BME280;54933;51.908;7.730;2022-07-18T10:45:56;101636.47;;;23.79;99.59
13709;BME280;54933;51.908;7.730;2022-07-18T10:51:08;101635.44;;;23.80;99.51
13709;BME280;54933;51.908;7.730;2022-07-18T10:58:55;101624.78;;;23.79;99.62
13709;BME280;54933;51.908;7.730;2022-07-18T11:01:20;101620.19;;;23.79;99.55
13709;BME280;54933;51.908;7.730;2022-07-18T11:03:47;101622.91;;;23.79;99.44
13709;BME280;54933;51.908;7.730;2022-07-18T11:06:14;101619.97;;;23.81;99.53
13709;BME280;54933;51.908;7.730;2022-07-18T11:08:39;101618.13;;;23.81;99.66
13709;BME280;54933;51.908;7.730;2022-07-18T11:11:06;101613.72;;;23.80;99.55
13709;BME280;54933;51.908;7.730;2022-07-18T11:13:36;101609.34;;;23.79;99.66
13709;BME280;54933;51.908;7.730;2022-07-18T11:16:20;101611.00;;;23.80;99.51
13709;BME280;54933;51.908;7.730;2022-07-18T11:23:43;101596.41;;;23.81;99.63
13709;BME280;54933;51.908;7.730;2022-07-18T11:26:15;101596.63;;;23.80;99.83
13709;BME280;54933;51.908;7.730;2022-07-18T11:28:41;101596.41;;;23.81;99.77
13709;BME280;54933;51.908;7.730;2022-07-18T11:31:09;101596.41;;;23.81;99.80
13709;BME280;54933;51.908;7.730;2022-07-18T11:33:37;101596.41;;;23.81;99.72
13709;BME280;54933;51.908;7.730;2022-07-18T11:38:33;101592.63;;;23.82;99.80
13709;BME280;54933;51.908;7.730;2022-07-18T11:40:59;101587.19;;;23.82;99.78
13709;BME280;54933;51.908;7.730;2022-07-18T11:43:25;101592.63;;;23.82;99.76
13709;BME280;54933;51.908;7.730;2022-07-18T11:46:04;101595.34;;;23.82;99.65
13709;BME280;54933;51.908;7.730;2022-07-18T11:48:31;101589.09;;;23.82;99.60
13709;BME280;54933;51.908;7.730;2022-07-18T11:50:57;101590.97;;;23.81;99.59
13709;BME280;54933;51.908;7.730;2022-07-18T11:53:22;101587.19;;;23.82;99.55
13709;BME280;54933;51.908;7.730;2022-07-18T11:55:48;101581.75;;;23.82;99.39
13709;BME280;54933;51.908;7.730;2022-07-18T11:58:15;101581.75;;;23.82;99.47
13709;BME280;54933;51.908;7.730;2022-07-18T12:00:42;101577.19;;;23.83;99.55
13709;BME280;54933;51.908;7.730;2022-07-18T12:03:12;101572.59;;;23.83;99.28
13709;BME280;54933;51.908;7.730;2022-07-18T12:05:52;101571.75;;;23.83;99.23
13709;BME280;54933;51.908;7.730;2022-07-18T12:11:10;101567.97;;;23.84;99.39
13709;BME280;54933;51.908;7.730;2022-07-18T12:19:01;101550.03;;;23.83;99.16
13709;BME280;54933;51.908;7.730;2022-07-18T12:27:07;101548.16;;;23.83;99.34
13709;BME280;54933;51.908;7.730;2022-07-18T12:32:39;101544.59;;;23.83;99.42
13709;BME280;54933;51.908;7.730;2022-07-18T12:35:07;101545.44;;;23.83;99.34
13709;BME280;54933;51.908;7.730;2022-07-18T12:37:33;101548.16;;;23.83;99.33
13709;BME280;54933;51.908;7.730;2022-07-18T12:40:00;101543.75;;;23.82;99.36
13709;BME280;54933;51.908;7.730;2022-07-18T12:42:31;101543.75;;;23.82;99.30
13709;BME280;54933;51.908;7.730;2022-07-18T12:44:58;101540.03;;;23.83;99.12
13709;BME280;54933;51.908;7.730;2022-07-18T12:47:23;101533.53;;;23.84;99.16
13709;BME280;54933;51.908;7.730;2022-07-18T12:49:48;101536.25;;;23.84;99.25
13709;BME280;54933;51.908;7.730;2022-07-18T12:52:13;101542.53;;;23.85;99.23
13709;BME280;54933;51.908;7.730;2022-07-18T12:54:39;101536.25;;;23.84;99.75
13709;BME280;54933;51.908;7.730;2022-07-18T12:57:04;101530.81;;;23.84;99.78
13709;BME280;54933;51.908;7.730;2022-07-18T12:59:29;101525.38;;;23.84;99.44
13709;BME280;54933;51.908;7.730;2022-07-18T13:01:55;101530.81;;;23.84;99.39
13709;BME280;54933;51.908;7.730;2022-07-18T13:04:20;101524.53;;;23.84;99.55
13709;BME280;54933;51.908;7.730;2022-07-18T13:06:45;101520.81;;;23.85;99.59
13709;BME280;54933;51.908;7.730;2022-07-18T13:09:10;101517.25;;;23.84;99.46
13709;BME280;54933;51.908;7.730;2022-07-18T13:11:36;101521.63;;;23.85;99.61
13709;BME280;54933;51.908;7.730;2022-07-18T13:14:02;101514.53;;;23.84;99.55
13709;BME280;54933;51.908;7.730;2022-07-18T13:16:27;101516.19;;;23.85;99.73
13709;BME280;54933;51.908;7.730;2022-07-18T13:18:53;101514.53;;;23.84;99.70
13709;BME280;54933;51.908;7.730;2022-07-18T13:21:18;101498.25;;;23.84;99.82
13709;BME280;54933;51.908;7.730;2022-07-18T13:23:43;101500.97;;;23.84;99.74
13709;BME280;54933;51.908;7.730;2022-07-18T13:26:09;101501.81;;;23.85;99.54
13709;BME280;54933;51.908;7.730;2022-07-18T13:28:34;101498.25;;;23.84;99.63
13709;BME280;54933;51.908;7.730;2022-07-18T13:30:59;101500.97;;;23.84;99.58